createdAt,value
2022-08-04T00:04:25.340Z,95.70
2022-08-04T00:11:15.239Z,95.70
2022-08-04T00:18:04.803Z,95.60
2022-08-04T00:24:47.885Z,95.50
2022-08-04T00:31:33.326Z,96.50
2022-08-04T00:38:34.286Z,97.40
2022-08-04T00:45:29.398Z,97.00
2022-08-04T00:52:55.819Z,98.20
2022-08-04T00:59:53.305Z,99.80
2022-08-04T01:06:45.089Z,98.40
2022-08-04T01:13:44.830Z,97.30
2022-08-04T01:20:33.120Z,97.50
2022-08-04T01:27:47.533Z,97.80
2022-08-04T01:34:47.942Z,99.90
2022-08-04T01:41:33.148Z,98.30
2022-08-04T01:48:16.343Z,99.90
2022-08-04T01:55:01.295Z,99.90
2022-08-04T02:01:43.874Z,99.30
2022-08-04T02:08:39.749Z,99.30
2022-08-04T02:15:42.620Z,98.10
2022-08-04T02:22:27.185Z,97.40
2022-08-04T02:29:47.919Z,97.10
2022-08-04T02:36:35.998Z,96.90
2022-08-04T02:43:20.191Z,96.60
2022-08-04T02:50:28.191Z,96.30
2022-08-04T02:57:13.642Z,96.60
2022-08-04T03:04:24.695Z,96.50
2022-08-04T03:11:17.598Z,96.80
2022-08-04T03:18:47.973Z,97.50
2022-08-04T03:25:57.359Z,97.50
2022-08-04T03:32:58.956Z,97.60
2022-08-04T03:40:10.848Z,98.30
2022-08-04T03:47:20.309Z,97.90
2022-08-04T03:54:40.283Z,99.90
2022-08-04T04:02:09.047Z,99.90
2022-08-04T04:09:12.809Z,99.90
2022-08-04T04:16:18.334Z,99.90
2022-08-04T04:23:22.793Z,99.90
2022-08-04T04:30:09.498Z,99.70
2022-08-04T04:37:00.905Z,99.50
2022-08-04T04:44:00.403Z,99.80
2022-08-04T04:51:01.289Z,98.90
2022-08-04T04:57:55.033Z,98.50
2022-08-04T05:05:12.620Z,98.40
2022-08-04T05:14:31.987Z,98.70
2022-08-04T05:19:29.483Z,99.10
2022-08-04T05:26:15.120Z,99.90
2022-08-04T05:33:05.063Z,92.80
2022-08-04T05:39:57.157Z,90.00
2022-08-04T05:46:40.183Z,88.20
2022-08-04T05:53:24.112Z,86.20
2022-08-04T06:00:31.664Z,84.30
2022-08-04T06:07:14.099Z,82.50
2022-08-04T06:13:59.365Z,79.10
2022-08-04T06:20:49.912Z,78.00
2022-08-04T06:27:33.651Z,75.10
2022-08-04T06:34:16.780Z,73.70
2022-08-04T06:41:03.521Z,71.80
2022-08-04T06:47:47.654Z,69.80
2022-08-04T06:54:30.500Z,69.60
2022-08-04T07:01:19.505Z,68.50
2022-08-04T07:08:02.594Z,68.70
2022-08-04T07:14:45.075Z,68.70
2022-08-04T07:21:28.007Z,67.30
2022-08-04T07:28:10.447Z,66.40
2022-08-04T07:34:53.727Z,65.90
2022-08-04T07:41:39.325Z,64.50
2022-08-04T07:48:24.236Z,63.60
2022-08-04T07:55:08.007Z,63.20
2022-08-04T08:09:15.419Z,62.70
2022-08-04T08:15:58.641Z,60.90
2022-08-04T08:22:41.456Z,61.50
2022-08-04T08:29:25.801Z,60.60
2022-08-04T08:36:30.176Z,60.50
2022-08-04T08:44:06.309Z,59.80
2022-08-04T08:51:02.809Z,57.50
2022-08-04T08:58:07.154Z,57.30
2022-08-04T09:05:14.071Z,56.60
2022-08-04T09:12:13.975Z,57.80
2022-08-04T09:19:37.464Z,56.70
2022-08-04T09:33:53.060Z,54.30
2022-08-04T09:40:57.008Z,55.50
2022-08-04T09:47:49.282Z,55.10
2022-08-04T09:54:45.723Z,53.80
2022-08-04T10:01:30.960Z,54.50
2022-08-04T10:08:57.494Z,53.90
2022-08-04T10:16:04.012Z,52.90
2022-08-04T10:23:22.749Z,51.40
2022-08-04T10:30:13.666Z,51.50
2022-08-04T10:37:59.206Z,49.60
2022-08-04T10:45:03.249Z,49.70
2022-08-04T10:52:03.590Z,49.90
2022-08-04T10:58:52.819Z,49.00
2022-08-04T11:05:49.867Z,50.20
2022-08-04T11:12:34.692Z,50.60
2022-08-04T11:19:45.133Z,51.40
2022-08-04T11:26:54.615Z,51.20
2022-08-04T11:33:50.299Z,52.60
2022-08-04T11:40:55.915Z,52.70
2022-08-04T11:48:09.422Z,53.80
2022-08-04T11:54:52.757Z,53.60
2022-08-04T12:02:07.888Z,53.00
2022-08-04T12:08:53.035Z,53.50
2022-08-04T12:16:00.979Z,54.00
2022-08-04T12:22:50.712Z,54.20
2022-08-04T12:29:36.182Z,54.20
2022-08-04T12:36:25.267Z,53.60
2022-08-04T12:43:17.962Z,53.80
2022-08-04T12:50:04.001Z,53.70
2022-08-04T12:56:48.579Z,53.30
2022-08-04T13:03:44.207Z,53.90
2022-08-04T13:10:30.387Z,53.70
2022-08-04T13:17:13.604Z,53.80
2022-08-04T13:24:20.497Z,53.20
2022-08-04T13:31:08.157Z,53.20
2022-08-04T13:37:51.715Z,54.40
2022-08-04T13:44:38.022Z,53.90
2022-08-04T13:51:23.853Z,53.60
2022-08-04T13:58:27.720Z,54.20
2022-08-04T14:05:24.344Z,53.60
2022-08-04T14:12:45.539Z,54.20
2022-08-04T14:19:14.824Z,53.90
2022-08-04T14:25:57.371Z,53.90
2022-08-04T14:34:02.282Z,53.90
2022-08-04T14:40:19.329Z,53.90
2022-08-04T14:47:13.219Z,54.20
2022-08-04T14:53:56.001Z,53.70
2022-08-04T15:00:38.489Z,53.80
2022-08-04T15:07:21.015Z,54.20
2022-08-04T15:14:04.455Z,54.00
2022-08-04T15:20:47.172Z,54.10
2022-08-04T15:27:34.936Z,53.70
2022-08-04T15:34:17.465Z,53.60
2022-08-04T15:41:06.048Z,53.70
2022-08-04T15:48:03.627Z,54.20
2022-08-04T15:54:52.865Z,53.70
2022-08-04T16:01:35.595Z,54.30
2022-08-04T16:08:18.459Z,53.90
2022-08-04T16:15:36.551Z,53.60
2022-08-04T16:22:40.883Z,53.50
2022-08-04T16:29:23.335Z,53.90
2022-08-04T16:36:12.288Z,54.20
2022-08-04T16:43:03.766Z,54.10
2022-08-04T16:49:50.234Z,54.20
2022-08-04T16:56:36.070Z,54.10
2022-08-04T17:03:18.705Z,53.90
2022-08-04T17:10:01.127Z,54.10
2022-08-04T17:16:44.009Z,54.40
2022-08-04T17:24:14.583Z,54.70
2022-08-04T17:37:52.830Z,55.10
2022-08-04T17:44:37.694Z,55.00
2022-08-04T17:51:20.123Z,55.20
2022-08-04T17:58:23.326Z,55.70
2022-08-04T18:05:11.511Z,55.60
2022-08-04T18:12:05.145Z,55.60
2022-08-04T18:19:14.909Z,56.40
2022-08-04T18:25:57.308Z,58.70
2022-08-04T18:33:04.519Z,60.20
2022-08-04T18:40:10.637Z,61.40
2022-08-04T18:46:52.612Z,61.70
2022-08-04T18:53:38.331Z,62.60
2022-08-04T19:00:27.248Z,63.20
2022-08-04T19:07:24.509Z,63.50
2022-08-04T19:14:13.170Z,63.20
2022-08-04T19:20:56.462Z,64.20
2022-08-04T19:27:40.052Z,64.80
2022-08-04T19:34:34.630Z,65.60
2022-08-04T19:41:18.206Z,66.10
2022-08-04T19:48:16.097Z,67.40
2022-08-04T19:55:00.598Z,67.40
2022-08-04T20:01:52.666Z,67.90
2022-08-04T20:08:37.302Z,68.50
2022-08-04T20:15:30.906Z,69.20
2022-08-04T20:22:52.902Z,70.10
2022-08-04T20:29:39.048Z,71.20
2022-08-04T20:36:23.646Z,70.80
2022-08-04T20:43:06.098Z,70.80
2022-08-04T20:49:51.767Z,71.50
2022-08-04T20:56:35.867Z,75.70
2022-08-04T21:03:18.238Z,76.60
2022-08-04T21:10:00.597Z,79.80
2022-08-04T21:16:55.002Z,80.10
2022-08-04T21:23:41.633Z,81.80
2022-08-04T21:30:26.083Z,82.00
2022-08-04T21:37:10.412Z,82.40
2022-08-04T21:43:54.326Z,84.30
2022-08-04T21:50:36.879Z,86.20
2022-08-04T21:57:19.275Z,87.50
2022-08-04T22:04:07.374Z,88.60
2022-08-04T22:10:51.132Z,89.80
2022-08-04T22:17:35.084Z,89.20
2022-08-04T22:24:18.252Z,91.50
2022-08-04T22:31:24.335Z,92.00
2022-08-04T22:38:25.586Z,91.60
2022-08-04T22:45:09.750Z,91.70
2022-08-04T22:51:53.995Z,92.90
2022-08-04T22:58:36.890Z,94.60
2022-08-04T23:05:22.921Z,94.90
2022-08-04T23:12:27.947Z,95.30
2022-08-04T23:19:15.398Z,94.50
2022-08-04T23:26:07.993Z,94.90
2022-08-04T23:32:53.854Z,96.30
2022-08-04T23:40:04.187Z,97.40
2022-08-04T23:46:39.016Z,97.90
2022-08-04T23:53:22.648Z,98.30
